Time;durP1;ratioP1;P1;durP2;ratioP2;P2;SDS_P1;SDS_P2;PMS_P1;PMS_P2;Temp;Humidity;BMP_temperature;BMP_pressure;BME280_temperature;BME280_humidity;BME280_pressure;Samples;Min_cycle;Max_cycle;Signal;HPM_P1;HPM_P2
2022/09/09 00:00:19;;;;;;;2.67;1.45;;;;;;;19.91;62.47;95398.88;4935473;29;20225;-84
2022/09/09 00:02:54;;;;;;;1.50;1.20;;;;;;;19.92;62.74;95402.28;4937529;29;20220;-84
2022/09/09 00:05:29;;;;;;;2.20;1.63;;;;;;;19.96;62.56;95403.38;4936185;28;20728;-84
2022/09/09 00:08:00;;;;;;;4.93;1.60;;;;;;;20.00;62.29;95392.22;4931430;29;20352;-84
2022/09/09 00:10:29;;;;;;;1.40;1.30;;;;;;;20.04;61.87;95397.75;4936268;29;20596;-85
2022/09/09 00:13:06;;;;;;;2.28;1.45;;;;;;;20.08;62.49;95393.63;4937143;29;20202;-83
2022/09/09 00:15:39;;;;;;;1.63;1.50;;;;;;;20.11;62.23;95394.97;4928694;28;20247;-85
2022/09/09 00:18:16;;;;;;;2.92;2.03;;;;;;;20.14;61.99;95395.28;4937082;29;20198;-85
2022/09/09 00:20:50;;;;;;;2.47;1.70;;;;;;;20.12;61.67;95383.47;4936128;29;20865;-84
2022/09/09 00:23:25;;;;;;;1.88;1.77;;;;;;;20.01;62.15;95391.16;4934527;29;20284;-84
2022/09/09 00:25:57;;;;;;;1.50;1.40;;;;;;;20.00;62.16;95399.28;4930846;28;20249;-85
2022/09/09 00:28:26;;;;;;;1.88;1.20;;;;;;;20.01;62.14;95388.56;4936839;29;20213;-84
2022/09/09 00:30:57;;;;;;;1.10;1.00;;;;;;;20.01;62.20;95387.78;4930902;29;20280;-84
2022/09/09 00:33:24;;;;;;;2.28;1.15;;;;;;;19.96;62.65;95388.50;4937331;29;20210;-85
2022/09/09 00:35:54;;;;;;;1.88;1.27;;;;;;;19.95;62.71;95379.09;4930635;28;20716;-84
2022/09/09 00:38:25;;;;;;;2.53;1.40;;;;;;;19.86;63.58;95390.16;4936915;29;20208;-84
2022/09/09 00:40:54;;;;;;;1.63;1.20;;;;;;;19.82;63.38;95391.69;4930325;29;20217;-84
2022/09/09 00:43:30;;;;;;;2.00;1.13;;;;;;;19.80;63.46;95397.16;4937057;29;20225;-84
2022/09/09 00:46:14;;;;;;;1.63;1.35;;;;;;;19.78;64.07;95395.81;4931436;28;20273;-84
2022/09/09 00:48:50;;;;;;;1.35;1.20;;;;;;;19.75;64.13;95386.63;4936423;29;20662;-85
2022/09/09 00:51:28;;;;;;;1.88;1.30;;;;;;;19.77;63.89;95389.00;4936075;29;20249;-84
2022/09/09 00:54:15;;;;;;;2.13;1.42;;;;;;;19.72;63.97;95389.69;4930943;29;20194;-84
2022/09/09 00:56:48;;;;;;;1.23;1.13;;;;;;;19.74;63.93;95387.66;4935002;28;20227;-85
2022/09/09 00:59:26;;;;;;;5.38;1.60;;;;;;;19.64;64.50;95388.25;4936513;29;20205;-84
2022/09/09 01:01:55;;;;;;;2.83;1.30;;;;;;;19.57;64.79;95390.25;4930214;29;20229;-84
2022/09/09 01:04:30;;;;;;;2.40;1.20;;;;;;;19.43;65.68;95385.56;4936044;29;20260;-84
2022/09/09 01:07:05;;;;;;;5.03;1.40;;;;;;;19.31;66.09;95386.41;4930736;29;20309;-84
2022/09/09 01:09:38;;;;;;;1.95;1.20;;;;;;;19.27;66.26;95395.72;4936177;29;20256;-84
2022/09/09 01:12:14;;;;;;;2.17;1.40;;;;;;;19.33;65.29;95397.41;4935851;29;20570;-84
2022/09/09 01:14:45;;;;;;;3.08;1.30;;;;;;;19.38;65.40;95401.13;4934816;28;20303;-84
2022/09/09 01:17:18;;;;;;;1.70;1.30;;;;;;;19.39;65.35;95389.66;4936781;29;20201;-84
2022/09/09 01:20:02;;;;;;;4.35;1.60;;;;;;;19.43;64.48;95398.63;4934510;29;20308;-84
2022/09/09 01:22:36;;;;;;;2.00;1.65;;;;;;;19.42;64.50;95389.19;4935600;29;20193;-84
2022/09/09 01:25:20;;;;;;;4.57;1.75;;;;;;;19.49;64.43;95390.59;4935957;28;20229;-84
2022/09/09 01:27:51;;;;;;;2.00;1.70;;;;;;;19.53;64.28;95381.31;4935524;29;20213;-83
2022/09/09 01:30:19;;;;;;;2.97;1.60;;;;;;;19.50;64.25;95394.84;4935024;29;20218;-84
2022/09/09 01:32:47;;;;;;;2.92;2.03;;;;;;;19.54;63.98;95387.31;4934905;29;20202;-85
2022/09/09 01:35:30;;;;;;;3.08;1.70;;;;;;;19.49;64.88;95393.22;4935683;28;20233;-85
2022/09/09 01:37:56;;;;;;;2.38;1.52;;;;;;;19.47;64.89;95391.88;4936483;29;20228;-84
2022/09/09 01:40:23;;;;;;;2.53;1.50;;;;;;;19.46;64.77;95390.28;4935383;29;20236;-85
2022/09/09 01:42:52;;;;;;;4.85;1.50;;;;;;;19.50;64.50;95392.22;4937389;29;20686;-82
2022/09/09 01:45:18;;;;;;;5.15;1.63;;;;;;;19.44;64.60;95389.72;4937101;28;20248;-82
2022/09/09 01:47:46;;;;;;;4.50;2.10;;;;;;;19.45;64.65;95388.69;4934625;29;20208;-83
2022/09/09 01:50:16;;;;;;;2.35;1.60;;;;;;;19.49;64.28;95390.59;4934594;29;20608;-82
2022/09/09 01:52:44;;;;;;;5.15;1.92;;;;;;;19.54;64.13;95385.50;4934779;29;20701;-81
2022/09/09 01:55:11;;;;;;;3.10;1.80;;;;;;;19.52;64.35;95384.16;4936975;28;20244;-81
2022/09/09 01:57:49;;;;;;;3.65;1.70;;;;;;;19.49;64.38;95392.44;4940377;29;20214;-81
2022/09/09 02:00:17;;;;;;;2.88;1.50;;;;;;;19.42;64.62;95394.41;4939134;29;20229;-81
2022/09/09 02:02:52;;;;;;;1.75;1.40;;;;;;;19.36;64.67;95390.13;4940235;29;20222;-81
2022/09/09 02:05:34;;;;;;;1.80;1.33;;;;;;;19.39;64.80;95387.06;4938008;29;20365;-81
2022/09/09 02:08:06;;;;;;;4.10;1.40;;;;;;;19.39;64.94;95394.88;4934643;29;20186;-82
2022/09/09 02:10:41;;;;;;;2.35;1.40;;;;;;;19.47;64.55;95384.81;4940273;29;20221;-82
2022/09/09 02:13:11;;;;;;;1.33;1.23;;;;;;;19.43;64.63;95382.94;4942233;29;20211;-82
2022/09/09 02:15:46;;;;;;;1.00;0.93;;;;;;;19.35;64.95;95371.06;4939385;28;20821;-81
2022/09/09 02:18:16;;;;;;;1.90;1.48;;;;;;;19.23;65.26;95371.13;4940191;29;20209;-82
2022/09/09 02:20:45;;;;;;;2.53;1.10;;;;;;;19.20;65.60;95376.81;4938342;29;20233;-82
2022/09/09 02:23:13;;;;;;;1.38;1.23;;;;;;;19.24;65.63;95379.75;4939805;29;20233;-82
2022/09/09 02:25:42;;;;;;;2.08;1.20;;;;;;;19.28;65.44;95378.25;4939270;28;20217;-82
2022/09/09 02:28:11;;;;;;;1.33;1.10;;;;;;;19.27;65.29;95377.44;4940191;29;20206;-82
2022/09/09 02:30:40;;;;;;;1.52;1.10;;;;;;;19.21;65.38;95382.84;4939129;29;20225;-82
2022/09/09 02:33:10;;;;;;;1.67;1.40;;;;;;;19.25;65.25;95368.28;4939702;29;20208;-82
2022/09/09 02:35:38;;;;;;;2.53;1.15;;;;;;;19.29;64.96;95372.00;4939113;28;20237;-81
2022/09/09 02:38:08;;;;;;;1.58;1.30;;;;;;;19.30;65.03;95368.34;4939717;29;20209;-82
2022/09/09 02:40:35;;;;;;;2.30;1.20;;;;;;;19.21;65.34;95370.59;4938472;29;20221;-82
2022/09/09 02:43:02;;;;;;;2.72;1.42;;;;;;;19.19;65.47;95372.63;4939722;29;20208;-82
2022/09/09 02:45:43;;;;;;;2.97;1.23;;;;;;;19.19;65.78;95366.63;4938565;28;20791;-82
2022/09/09 02:48:15;;;;;;;1.48;1.25;;;;;;;19.18;65.98;95367.66;4934381;29;20733;-81
2022/09/09 02:50:55;;;;;;;2.55;1.30;;;;;;;19.13;65.99;95370.94;4938601;29;20221;-82
2022/09/09 02:53:28;;;;;;;1.67;1.10;;;;;;;19.14;65.69;95372.53;4938788;29;20201;-82
2022/09/09 02:55:59;;;;;;;2.67;1.10;;;;;;;19.11;66.31;95367.78;4937900;28;20601;-82
2022/09/09 02:58:26;;;;;;;1.98;1.33;;;;;;;19.13;65.88;95372.78;4938407;29;20201;-82
2022/09/09 03:00:53;;;;;;;1.90;1.00;;;;;;;19.17;65.91;95368.66;4938454;29;20229;-82
2022/09/09 03:03:21;;;;;;;1.23;1.13;;;;;;;19.15;66.16;95370.72;4939327;29;20202;-82
2022/09/09 03:05:48;;;;;;;1.33;1.10;;;;;;;19.14;66.14;95369.13;4937047;28;20232;-82
2022/09/09 03:08:15;;;;;;;1.33;1.23;;;;;;;19.16;66.17;95361.88;4938157;29;20208;-84
2022/09/09 03:10:41;;;;;;;2.05;1.20;;;;;;;19.21;65.84;95359.34;4934033;29;20225;-84
2022/09/09 03:13:08;;;;;;;2.47;1.10;;;;;;;19.21;66.15;95361.97;4935095;29;20209;-84
2022/09/09 03:15:35;;;;;;;1.65;1.30;;;;;;;19.24;66.12;95358.88;4934063;28;20232;-84
2022/09/09 03:18:02;;;;;;;4.88;1.50;;;;;;;19.23;66.46;95370.34;4935263;29;20197;-85
2022/09/09 03:20:31;;;;;;;2.65;1.30;;;;;;;19.26;66.05;95368.03;4933628;29;20240;-84
2022/09/09 03:23:00;;;;;;;2.92;1.10;;;;;;;19.23;66.33;95360.69;4935090;29;20285;-84
2022/09/09 03:25:28;;;;;;;2.00;1.17;;;;;;;19.17;66.68;95361.63;4934437;28;20230;-86
2022/09/09 03:27:55;;;;;;;2.55;1.38;;;;;;;19.12;67.26;95364.16;4934258;29;20300;-84
2022/09/09 03:30:22;;;;;;;2.83;1.30;;;;;;;19.15;66.78;95361.06;4934136;29;20222;-84
2022/09/09 03:32:49;;;;;;;2.25;1.42;;;;;;;19.15;67.04;95361.06;4934659;29;20197;-84
2022/09/09 03:35:16;;;;;;;1.35;1.20;;;;;;;19.17;66.61;95359.03;4934210;28;20225;-84
2022/09/09 03:37:44;;;;;;;1.55;1.25;;;;;;;19.09;67.45;95358.59;4933611;29;20273;-85
2022/09/09 03:40:11;;;;;;;1.20;1.10;;;;;;;19.07;67.12;95355.44;4933743;29;20228;-83
2022/09/09 03:42:38;;;;;;;1.23;1.10;;;;;;;19.00;67.59;95360.81;4934146;29;20338;-84
2022/09/09 03:45:05;;;;;;;1.42;1.33;;;;;;;18.98;67.73;95358.44;4933799;28;20229;-84
2022/09/09 03:47:32;;;;;;;1.45;1.25;;;;;;;19.02;67.66;95360.59;4932773;29;20209;-84
2022/09/09 03:49:59;;;;;;;1.33;1.23;;;;;;;19.00;67.86;95360.03;4934164;29;20229;-84
2022/09/09 03:52:26;;;;;;;1.50;1.40;;;;;;;18.92;67.92;95361.97;4933631;29;20206;-83
2022/09/09 03:54:55;;;;;;;1.35;1.00;;;;;;;18.91;68.22;95360.38;4933383;28;20701;-84
2022/09/09 03:57:21;;;;;;;2.80;1.40;;;;;;;18.96;67.96;95363.09;4934304;29;20253;-84
2022/09/09 03:59:48;;;;;;;1.40;1.20;;;;;;;18.96;68.26;95357.88;4933721;29;20264;-85
2022/09/09 04:02:15;;;;;;;1.55;1.30;;;;;;;19.02;67.95;95350.16;4933432;29;20213;-84
2022/09/09 04:04:41;;;;;;;1.83;1.30;;;;;;;19.06;67.86;95346.81;4933203;28;20201;-84
2022/09/09 04:07:08;;;;;;;1.50;1.40;;;;;;;19.01;68.15;95351.97;4933564;29;20197;-84
2022/09/09 04:09:35;;;;;;;1.48;1.25;;;;;;;19.00;68.36;95352.97;4933328;29;20857;-84
2022/09/09 04:12:04;;;;;;;2.38;1.20;;;;;;;18.98;68.16;95353.22;4926672;29;20813;-84
2022/09/09 04:14:30;;;;;;;1.25;1.13;;;;;;;18.96;68.34;95351.88;4932386;29;20610;-84
2022/09/09 04:16:57;;;;;;;1.25;1.17;;;;;;;18.94;68.19;95341.66;4932950;29;20647;-84
2022/09/09 04:19:23;;;;;;;1.40;1.30;;;;;;;18.87;68.35;95343.59;4932805;29;20728;-84
2022/09/09 04:21:51;;;;;;;1.30;1.20;;;;;;;18.88;68.17;95339.19;4932625;29;20217;-85
2022/09/09 04:24:18;;;;;;;2.65;1.20;;;;;;;18.90;68.22;95347.56;4934458;29;20210;-84
2022/09/09 04:26:45;;;;;;;4.28;1.30;;;;;;;18.90;68.22;95340.53;4934040;28;20251;-84
2022/09/09 04:29:13;;;;;;;1.90;1.20;;;;;;;18.90;68.17;95340.53;4934133;29;20205;-84
2022/09/09 04:31:41;;;;;;;1.92;1.20;;;;;;;18.93;68.25;95326.25;4933584;29;20296;-84
2022/09/09 04:34:08;;;;;;;1.33;1.23;;;;;;;18.94;68.22;95330.44;4934474;29;20201;-84
2022/09/09 04:36:34;;;;;;;2.22;1.20;;;;;;;18.93;68.17;95323.63;4933196;28;20244;-84
2022/09/09 04:39:01;;;;;;;2.72;1.33;;;;;;;18.98;67.85;95323.72;4933618;29;20692;-84
2022/09/09 04:41:28;;;;;;;1.90;1.40;;;;;;;18.93;68.51;95324.41;4924110;29;20322;-85
2022/09/09 04:43:54;;;;;;;1.20;1.10;;;;;;;18.92;68.06;95328.06;4932597;29;20717;-84
2022/09/09 04:46:23;;;;;;;4.13;1.38;;;;;;;18.86;68.59;95328.19;4932682;28;20288;-84
2022/09/09 04:48:50;;;;;;;1.80;1.30;;;;;;;18.87;68.46;95329.78;4933367;29;20206;-84
2022/09/09 04:51:17;;;;;;;2.58;1.40;;;;;;;18.83;68.77;95329.47;4932833;29;21017;-84
2022/09/09 04:53:44;;;;;;;1.50;1.20;;;;;;;18.88;68.26;95326.94;4933411;29;20212;-85
2022/09/09 04:56:12;;;;;;;1.95;1.45;;;;;;;18.89;68.37;95340.78;4933103;28;20252;-84
2022/09/09 04:58:41;;;;;;;2.40;1.48;;;;;;;18.88;68.56;95329.53;4933169;29;20201;-84
2022/09/09 05:01:09;;;;;;;2.75;1.20;;;;;;;18.87;68.60;95322.75;4933083;29;20264;-84
2022/09/09 05:03:37;;;;;;;1.20;1.10;;;;;;;18.90;68.53;95321.47;4933477;29;20205;-84
2022/09/09 05:06:09;;;;;;;2.10;1.20;;;;;;;18.94;68.34;95328.63;4933004;28;20721;-83
2022/09/09 05:08:36;;;;;;;1.73;1.10;;;;;;;18.98;68.24;95324.50;4933487;29;20296;-84
2022/09/09 05:11:03;;;;;;;3.88;1.20;;;;;;;19.01;68.02;95325.88;4932916;29;20229;-84
2022/09/09 05:13:31;;;;;;;1.40;1.30;;;;;;;18.97;68.41;95333.38;4933431;29;20293;-85
2022/09/09 05:15:57;;;;;;;3.28;1.30;;;;;;;18.95;68.15;95330.19;4933657;28;20899;-84
2022/09/09 05:18:24;;;;;;;1.35;1.17;;;;;;;18.95;67.97;95339.84;4933175;29;20228;-85
2022/09/09 05:20:52;;;;;;;1.40;1.15;;;;;;;18.92;67.78;95340.31;4932534;29;20277;-84
2022/09/09 05:23:19;;;;;;;1.45;1.10;;;;;;;18.90;67.71;95339.75;4933080;29;20225;-84
2022/09/09 05:25:56;;;;;;;2.35;1.30;;;;;;;18.92;67.67;95346.31;4933078;28;20237;-84
2022/09/09 05:28:24;;;;;;;2.38;1.17;;;;;;;18.91;67.63;95346.56;4932762;29;20197;-84
2022/09/09 05:30:57;;;;;;;1.27;1.17;;;;;;;18.93;67.53;95341.88;4932116;29;20305;-84
2022/09/09 05:33:23;;;;;;;1.10;1.10;;;;;;;18.89;68.10;95345.97;4933143;29;20216;-84
2022/09/09 05:35:57;;;;;;;2.63;1.25;;;;;;;18.91;68.18;95355.16;4932608;28;20237;-84
2022/09/09 05:38:24;;;;;;;1.23;1.13;;;;;;;18.90;68.05;95350.97;4933171;29;20597;-84
2022/09/09 05:40:52;;;;;;;1.65;1.52;;;;;;;18.91;67.98;95354.38;4932819;29;20257;-84
2022/09/09 05:43:18;;;;;;;13.48;12.07;;;;;;;18.89;68.08;95351.22;4932803;29;20956;-84
2022/09/09 05:45:47;;;;;;;4.05;3.65;;;;;;;18.83;69.11;95350.34;4932454;28;20233;-84
2022/09/09 05:48:14;;;;;;;2.85;2.30;;;;;;;18.90;68.32;95350.97;4933224;29;20206;-84
2022/09/09 05:50:42;;;;;;;2.55;1.98;;;;;;;18.94;68.02;95359.13;4932572;29;20224;-84
2022/09/09 05:53:10;;;;;;;1.95;1.58;;;;;;;19.00;67.65;95350.38;4936666;29;20581;-84
2022/09/09 05:55:38;;;;;;;2.88;1.30;;;;;;;18.98;67.21;95349.81;4936437;28;20291;-85
2022/09/09 05:58:05;;;;;;;1.45;1.20;;;;;;;18.98;67.31;95355.81;4937214;29;20709;-84
2022/09/09 06:00:31;;;;;;;2.38;1.30;;;;;;;19.03;67.27;95362.16;4936568;29;20319;-84
2022/09/09 06:02:58;;;;;;;1.48;1.30;;;;;;;19.04;67.77;95358.53;4937033;29;20205;-83
2022/09/09 06:05:27;;;;;;;1.63;1.30;;;;;;;19.08;67.10;95368.25;4935876;28;20229;-84
2022/09/09 06:07:53;;;;;;;4.43;1.35;;;;;;;19.13;67.33;95367.56;4936781;29;20269;-84
2022/09/09 06:10:21;;;;;;;2.95;1.52;;;;;;;19.09;67.21;95362.00;4936566;29;20270;-84
2022/09/09 06:12:48;;;;;;;3.60;1.45;;;;;;;19.09;67.21;95366.44;4936344;29;20253;-84
2022/09/09 06:15:14;;;;;;;2.55;1.42;;;;;;;19.10;67.38;95368.00;4935841;28;20808;-83
2022/09/09 06:17:41;;;;;;;3.03;2.38;;;;;;;19.09;67.22;95364.59;4935787;29;20705;-84
2022/09/09 06:20:09;;;;;;;4.72;4.25;;;;;;;19.08;67.11;95370.84;4935192;29;20233;-83
2022/09/09 06:22:35;;;;;;;2.85;2.00;;;;;;;19.05;66.89;95357.50;4935773;29;20205;-85
2022/09/09 06:25:02;;;;;;;4.43;3.38;;;;;;;19.04;67.00;95366.34;4935569;28;20233;-83
2022/09/09 06:27:29;;;;;;;2.00;1.80;;;;;;;19.10;67.00;95360.19;4935911;29;20205;-84
2022/09/09 06:29:56;;;;;;;3.72;1.48;;;;;;;19.06;66.86;95361.66;4935781;29;20220;-84
2022/09/09 06:32:22;;;;;;;1.75;1.35;;;;;;;19.00;67.14;95352.19;4935251;29;20829;-84
2022/09/09 06:34:49;;;;;;;1.80;1.20;;;;;;;18.98;66.98;95355.03;4935385;28;20206;-85
2022/09/09 06:37:16;;;;;;;1.15;1.10;;;;;;;19.03;67.24;95362.97;4935282;29;20241;-84
2022/09/09 06:39:42;;;;;;;2.13;1.05;;;;;;;19.04;67.15;95359.31;4935199;29;20213;-84
2022/09/09 06:42:09;;;;;;;1.10;1.10;;;;;;;19.07;66.82;95361.44;4935416;29;20201;-84
2022/09/09 06:44:37;;;;;;;2.35;0.93;;;;;;;19.10;66.88;95360.97;4936311;28;20297;-84
2022/09/09 06:47:04;;;;;;;1.90;1.10;;;;;;;19.16;66.91;95367.88;4935881;29;20201;-84
2022/09/09 06:49:30;;;;;;;2.75;0.98;;;;;;;19.23;66.79;95371.13;4935500;29;20297;-84
2022/09/09 06:51:56;;;;;;;2.65;1.00;;;;;;;19.24;66.62;95369.31;4934946;29;20221;-83
2022/09/09 06:54:23;;;;;;;1.08;0.98;;;;;;;19.24;66.80;95371.94;4935645;29;20213;-84
2022/09/09 06:56:50;;;;;;;1.25;1.10;;;;;;;19.26;66.61;95367.25;4934800;28;20233;-83
2022/09/09 06:59:16;;;;;;;0.95;0.95;;;;;;;19.24;66.86;95377.16;4935750;29;20215;-83
2022/09/09 07:01:45;;;;;;;3.80;1.20;;;;;;;19.25;67.07;95382.13;4934710;29;20645;-84
2022/09/09 07:04:13;;;;;;;1.13;1.00;;;;;;;19.18;67.41;95386.72;4934047;29;20209;-84
2022/09/09 07:06:43;;;;;;;2.22;1.10;;;;;;;19.25;67.32;95387.34;4934771;28;20265;-84
2022/09/09 07:09:10;;;;;;;1.75;0.93;;;;;;;19.22;67.42;95398.28;4935445;29;20662;-84
2022/09/09 07:11:39;;;;;;;1.52;1.13;;;;;;;19.25;67.75;95408.22;4935025;29;20288;-84
2022/09/09 07:14:06;;;;;;;1.25;1.00;;;;;;;19.29;67.92;95430.22;4935127;29;20820;-84
2022/09/09 07:16:33;;;;;;;1.75;1.08;;;;;;;19.30;68.65;95431.00;4934891;28;20245;-84
2022/09/09 07:19:02;;;;;;;2.25;0.98;;;;;;;19.30;68.18;95415.34;4934608;29;20660;-86
2022/09/09 07:21:30;;;;;;;1.77;1.02;;;;;;;19.24;68.83;95414.47;4934808;29;20232;-84
2022/09/09 07:23:57;;;;;;;2.92;1.73;;;;;;;19.28;69.42;95426.03;4934839;29;20229;-86
2022/09/09 07:26:26;;;;;;;1.08;0.90;;;;;;;19.28;69.73;95428.63;4934601;28;20232;-84
2022/09/09 07:28:53;;;;;;;1.70;1.13;;;;;;;19.30;69.91;95431.00;4934624;29;20757;-84
2022/09/09 07:31:21;;;;;;;1.42;1.10;;;;;;;19.26;71.49;95427.28;4934093;29;20230;-84
2022/09/09 07:33:49;;;;;;;1.38;1.00;;;;;;;19.40;69.71;95431.22;4934891;29;20249;-84
2022/09/09 07:36:21;;;;;;;3.60;2.08;;;;;;;19.45;68.96;95430.47;4934412;28;20284;-84
2022/09/09 07:38:51;;;;;;;5.95;4.93;;;;;;;19.55;69.12;95428.88;4934182;29;20749;-84
2022/09/09 07:41:20;;;;;;;4.43;3.92;;;;;;;19.65;69.31;95436.06;4934227;29;20229;-85
2022/09/09 07:43:48;;;;;;;4.30;3.47;;;;;;;19.74;68.88;95439.91;4934429;29;20282;-85
2022/09/09 07:46:16;;;;;;;3.03;1.52;;;;;;;19.76;68.76;95432.63;4934143;28;20233;-84
2022/09/09 07:48:45;;;;;;;3.65;2.08;;;;;;;19.69;69.77;95444.25;4935552;29;20205;-85
2022/09/09 07:51:17;;;;;;;1.90;1.63;;;;;;;19.75;69.29;95441.47;4935253;29;20281;-84
2022/09/09 07:53:45;;;;;;;1.55;1.10;;;;;;;19.79;69.26;95449.63;4935200;29;20577;-85
2022/09/09 07:56:16;;;;;;;1.08;0.98;;;;;;;19.77;69.54;95452.50;4934754;28;20804;-84
2022/09/09 07:58:45;;;;;;;2.47;1.40;;;;;;;19.81;69.35;95453.59;4935275;29;20280;-85
2022/09/09 08:01:14;;;;;;;1.73;0.82;;;;;;;19.82;69.45;95449.19;4934908;29;20222;-85
2022/09/09 08:03:40;;;;;;;3.08;1.42;;;;;;;19.89;69.54;95445.34;4935197;29;20649;-85
2022/09/09 08:06:09;;;;;;;3.03;1.20;;;;;;;19.87;69.43;95446.63;4934907;28;20281;-86
2022/09/09 08:08:37;;;;;;;1.75;1.15;;;;;;;19.92;68.98;95455.34;4935801;29;20205;-86
2022/09/09 08:11:08;;;;;;;1.20;1.10;;;;;;;20.04;68.26;95457.84;4934938;29;20767;-85
2022/09/09 08:13:36;;;;;;;2.40;1.10;;;;;;;20.09;67.85;95460.56;4935921;29;20237;-85
2022/09/09 08:16:07;;;;;;;1.38;1.08;;;;;;;20.02;68.19;95467.75;4934829;28;20244;-85
2022/09/09 08:18:37;;;;;;;1.15;1.05;;;;;;;20.13;67.86;95464.28;4935407;29;20684;-85
2022/09/09 08:21:08;;;;;;;4.63;1.13;;;;;;;20.15;68.08;95475.31;4934301;29;20236;-84
2022/09/09 08:23:35;;;;;;;2.13;0.90;;;;;;;20.15;68.25;95471.91;4935080;29;20719;-84
2022/09/09 08:26:10;;;;;;;3.40;3.08;;;;;;;20.23;68.46;95479.31;4934700;28;20329;-84
2022/09/09 08:28:37;;;;;;;35.65;28.95;;;;;;;20.20;69.09;95470.16;4935309;29;20209;-85
2022/09/09 08:31:13;;;;;;;11.77;9.55;;;;;;;20.28;68.49;95480.19;4934929;29;20222;-85
2022/09/09 08:33:41;;;;;;;16.05;10.93;;;;;;;20.32;68.44;95483.91;4935656;29;20274;-84
2022/09/09 08:36:09;;;;;;;3.78;2.88;;;;;;;20.19;68.51;95479.03;4935006;28;20258;-84
2022/09/09 08:38:37;;;;;;;3.13;2.83;;;;;;;20.11;68.57;95483.84;4935550;29;20225;-85
2022/09/09 08:41:17;;;;;;;3.13;2.50;;;;;;;19.95;69.72;95485.44;4935296;29;20236;-84
2022/09/09 08:43:47;;;;;;;2.10;1.63;;;;;;;19.97;69.76;95493.84;4935458;29;20205;-84
2022/09/09 08:46:23;;;;;;;3.10;2.25;;;;;;;19.92;72.56;95489.31;4935288;28;20320;-83
2022/09/09 08:48:57;;;;;;;4.22;1.95;;;;;;;19.92;72.04;95483.28;4936606;29;20239;-84
2022/09/09 08:51:27;;;;;;;5.50;1.73;;;;;;;19.97;72.34;95484.19;4935198;29;20233;-83
2022/09/09 08:53:55;;;;;;;2.88;1.80;;;;;;;19.96;74.67;95490.44;4935743;29;20737;-85
2022/09/09 08:56:26;;;;;;;1.63;1.40;;;;;;;20.06;73.11;95486.38;4935371;28;20233;-86
2022/09/09 08:58:54;;;;;;;1.33;1.10;;;;;;;20.08;71.15;95484.31;4935768;29;20235;-85
2022/09/09 09:01:53;;;;;;;1.27;1.17;;;;;;;20.09;70.78;95480.69;4934552;29;20237;-85
2022/09/09 09:04:35;;;;;;;2.90;1.30;;;;;;;20.02;71.71;95484.22;4931281;29;20240;-86
2022/09/09 09:07:13;;;;;;;2.08;1.20;;;;;;;20.12;70.44;95477.59;4935129;29;20240;-84
2022/09/09 09:09:48;;;;;;;3.70;1.13;;;;;;;20.14;70.70;95480.75;4935567;29;20216;-85
2022/09/09 09:12:20;;;;;;;3.53;1.35;;;;;;;20.34;69.30;95479.25;4934866;29;20204;-84
2022/09/09 09:14:48;;;;;;;1.88;1.15;;;;;;;20.47;68.82;95477.34;4934632;28;20204;-85
2022/09/09 09:17:17;;;;;;;2.65;1.30;;;;;;;20.51;68.19;95479.25;4934662;29;20296;-85
2022/09/09 09:19:46;;;;;;;1.55;1.10;;;;;;;20.42;65.08;95475.44;4935112;29;20233;-84
2022/09/09 09:22:19;;;;;;;1.92;1.20;;;;;;;20.32;64.84;95476.06;4934092;29;20581;-84
2022/09/09 09:24:52;;;;;;;0.93;0.93;;;;;;;20.35;64.41;95469.56;4934513;28;20204;-85
2022/09/09 09:27:30;;;;;;;1.52;1.00;;;;;;;20.41;65.10;95476.47;4937051;29;20273;-85
2022/09/09 09:29:58;;;;;;;3.20;1.02;;;;;;;20.48;64.89;95478.94;4919528;29;20296;-85
2022/09/09 09:32:26;;;;;;;1.88;1.00;;;;;;;20.53;65.18;95481.63;4918653;29;20202;-85
2022/09/09 09:34:55;;;;;;;1.77;1.00;;;;;;;20.52;64.59;95483.44;4920663;29;20289;-82
2022/09/09 09:37:28;;;;;;;1.20;0.95;;;;;;;20.53;64.37;95486.84;4920079;29;20253;-85
2022/09/09 09:39:54;;;;;;;1.80;0.90;;;;;;;20.42;65.21;95488.50;4918976;29;20754;-84
2022/09/09 09:42:23;;;;;;;1.70;1.20;;;;;;;20.44;65.28;95486.44;4918564;29;20284;-85
2022/09/09 09:44:49;;;;;;;1.02;0.90;;;;;;;20.42;65.08;95487.72;4918163;29;20694;-84
2022/09/09 09:47:19;;;;;;;3.00;2.35;;;;;;;20.41;64.50;95488.75;4918617;29;20894;-84
2022/09/09 09:49:53;;;;;;;6.35;5.10;;;;;;;20.40;64.55;95487.19;4918726;29;20202;-84
2022/09/09 09:52:23;;;;;;;3.70;3.33;;;;;;;20.31;65.84;95482.34;4918511;29;20209;-85
2022/09/09 09:54:50;;;;;;;3.53;3.22;;;;;;;20.34;65.62;95484.47;4918303;29;20210;-84
2022/09/09 09:57:24;;;;;;;2.60;1.63;;;;;;;20.40;65.20;95492.44;4918150;29;20581;-85
2022/09/09 10:00:02;;;;;;;1.58;1.48;;;;;;;20.35;65.26;95493.91;4919018;29;20318;-85
2022/09/09 10:02:38;;;;;;;1.98;1.63;;;;;;;20.28;65.88;95487.25;4919022;29;20312;-84
2022/09/09 10:05:07;;;;;;;3.72;3.40;;;;;;;20.24;66.38;95481.69;4938179;28;20599;-85
2022/09/09 10:07:34;;;;;;;3.00;1.60;;;;;;;20.13;66.04;95492.25;4937724;29;20698;-84
2022/09/09 10:10:01;;;;;;;8.68;7.72;;;;;;;20.11;66.88;95489.06;4937330;29;20213;-84
2022/09/09 10:12:42;;;;;;;5.53;4.78;;;;;;;20.10;67.12;95484.88;4937599;29;20210;-84
2022/09/09 10:15:25;;;;;;;3.80;2.00;;;;;;;20.15;67.12;95484.97;4937544;28;20872;-84
2022/09/09 10:18:01;;;;;;;3.40;1.95;;;;;;;20.20;67.22;95483.22;4937598;29;20772;-84
2022/09/09 10:20:38;;;;;;;2.33;1.40;;;;;;;20.25;67.61;95480.66;4937064;29;20887;-85
2022/09/09 10:23:21;;;;;;;1.40;1.30;;;;;;;20.28;67.67;95480.19;4938292;29;20595;-84
2022/09/09 10:26:17;;;;;;;3.08;1.30;;;;;;;20.29;68.52;95484.38;4937745;28;20237;-85
2022/09/09 10:29:00;;;;;;;2.45;1.20;;;;;;;20.16;69.07;95491.78;4937649;29;20630;-84
2022/09/09 10:31:39;;;;;;;2.60;1.33;;;;;;;20.13;68.80;95490.44;4937358;29;20664;-85
2022/09/09 10:34:20;;;;;;;2.22;1.52;;;;;;;20.20;68.64;95487.66;4937823;29;20205;-85
2022/09/09 10:36:50;;;;;;;1.67;1.10;;;;;;;20.24;68.02;95480.91;4936763;28;20241;-85
2022/09/09 10:39:31;;;;;;;3.65;1.35;;;;;;;20.22;67.97;95481.13;4937267;29;20249;-84
2022/09/09 10:42:06;;;;;;;2.25;1.75;;;;;;;20.27;67.82;95481.22;4936500;29;20225;-85
2022/09/09 10:44:48;;;;;;;1.67;1.50;;;;;;;20.33;67.47;95495.97;4936593;28;20208;-85
2022/09/09 10:47:33;;;;;;;1.60;1.15;;;;;;;20.32;67.56;95481.31;4936719;29;20209;-85
2022/09/09 10:50:15;;;;;;;2.53;1.13;;;;;;;20.19;68.44;95488.69;4936878;29;20868;-84
2022/09/09 10:52:52;;;;;;;1.55;1.20;;;;;;;20.26;68.33;95486.69;4936791;29;20273;-85
2022/09/09 10:55:20;;;;;;;1.60;1.27;;;;;;;20.32;68.32;95489.16;4936199;28;20233;-85
2022/09/09 10:57:49;;;;;;;1.35;1.10;;;;;;;20.42;67.85;95490.34;4935932;29;20228;-85
2022/09/09 11:00:19;;;;;;;1.55;1.05;;;;;;;20.52;67.09;95487.88;4936063;29;20312;-85
2022/09/09 11:02:52;;;;;;;1.73;1.13;;;;;;;20.68;65.58;95482.59;4936316;29;20248;-84
2022/09/09 11:05:21;;;;;;;1.00;1.00;;;;;;;20.81;64.42;95478.84;4937783;28;20264;-85
2022/09/09 11:07:53;;;;;;;1.40;1.00;;;;;;;20.87;64.26;95479.69;4936582;29;20214;-84
2022/09/09 11:10:25;;;;;;;1.20;1.10;;;;;;;20.88;63.82;95479.47;4935565;29;20313;-85
2022/09/09 11:12:58;;;;;;;6.32;1.00;;;;;;;21.01;63.65;95479.09;4936232;29;20736;-85
2022/09/09 11:15:30;;;;;;;1.23;0.90;;;;;;;21.31;62.23;95473.44;4936150;28;20296;-85
2022/09/09 11:18:02;;;;;;;3.03;1.08;;;;;;;21.54;61.67;95472.38;4936570;29;20218;-85
2022/09/09 11:20:28;;;;;;;1.23;0.95;;;;;;;21.67;60.31;95474.56;4935457;29;20289;-85
2022/09/09 11:23:01;;;;;;;0.80;0.80;;;;;;;21.67;60.03;95471.94;4936485;29;20209;-84
2022/09/09 11:25:36;;;;;;;1.75;1.17;;;;;;;21.65;60.26;95474.03;4928608;29;20240;-85
2022/09/09 11:28:22;;;;;;;1.40;0.85;;;;;;;21.59;59.53;95482.09;4917290;29;20672;-85
2022/09/09 11:31:02;;;;;;;1.48;0.95;;;;;;;21.56;59.53;95472.09;4916471;29;20748;-84
2022/09/09 11:33:44;;;;;;;0.80;0.80;;;;;;;21.62;59.75;95476.34;4917852;29;20670;-85
2022/09/09 11:36:34;;;;;;;1.60;1.08;;;;;;;21.63;59.39;95470.06;4916744;28;20245;-85
2022/09/09 11:39:06;;;;;;;1.52;1.00;;;;;;;21.46;59.34;95478.03;4917984;29;20234;-84
2022/09/09 11:41:37;;;;;;;2.83;1.00;;;;;;;21.52;59.26;95469.19;4916988;29;20226;-85
2022/09/09 11:44:11;;;;;;;2.45;1.70;;;;;;;21.32;59.82;95474.22;4917769;29;20297;-85
2022/09/09 11:46:41;;;;;;;1.30;1.20;;;;;;;21.21;59.83;95469.91;4933315;29;20232;-85
2022/09/09 11:49:27;;;;;;;1.10;0.90;;;;;;;21.03;59.50;95466.53;4935630;29;20202;-85